KSHV/SHV METAR and TAF weather

Enter ICAO airport designator
Station Type Date Time Source
KSHV METAR 2019/02/23 22:56 UTC NOAA

KSHV 232256Z 24011KT 10SM FEW160 BKN280 21/02 A2980 RMK AO2 SLP090 T02060017


Station Type Date Time Source
KSHV Decoded METAR 2019/02/23 22:56 UTC NOAA

SHREVEPORT REGIONAL AIRPORT, LA, United States (KSHV) 32-27N 93-50W 80M
Feb 23, 2019 - 05:56 PM EST / 2019.02.23 2256 UTC
Wind: from the WSW (240 degrees) at 13 MPH (11 KT):0
Visibility: 10 mile(s):0
Sky conditions: mostly cloudy
Temperature: 69.1 F (20.6 C)
Dew Point: 35.1 F (1.7 C)
Relative Humidity: 28%
Pressure (altimeter): 29.8 in. Hg (1009 hPa)
ob: KSHV 232256Z 24011KT 10SM FEW160 BKN280 21/02 A2980 RMK AO2 SLP090 T02060017
cycle: 23

Station Type Date Time Source
KSHV TAF 2019/02/23 22:36 UTC NOAA

TAF
AMD KSHV 232135Z 2322/2418 26015G23KT P6SM BKN250
FM240600 31015G23KT P6SM SCT250
FM241200 35010KT P6SM SKC


Example: see airport list